createdAt,value
2022-09-27T00:01:39.976Z,1002.05
2022-09-27T00:06:47.028Z,1001.99
2022-09-27T00:11:54.206Z,1001.90
2022-09-27T00:17:01.470Z,1001.97
2022-09-27T00:22:08.620Z,1002.13
2022-09-27T00:27:15.776Z,1002.12
2022-09-27T00:32:22.989Z,1001.91
2022-09-27T00:37:30.156Z,1002.05
2022-09-27T00:42:37.365Z,1001.97
2022-09-27T00:47:44.629Z,1002.01
2022-09-27T00:52:51.837Z,1002.15
2022-09-27T00:57:59.010Z,1002.06
2022-09-27T01:03:06.236Z,1002.09
2022-09-27T01:08:13.412Z,1001.89
2022-09-27T01:13:20.685Z,1001.86
2022-09-27T01:18:27.999Z,1001.81
2022-09-27T01:23:35.151Z,1001.82
2022-09-27T01:28:42.335Z,1001.91
2022-09-27T01:33:49.615Z,1001.67
2022-09-27T01:38:56.852Z,1001.77
2022-09-27T01:44:04.059Z,1001.69
2022-09-27T01:49:11.291Z,1001.57
2022-09-27T01:54:18.465Z,1001.57
2022-09-27T01:59:25.689Z,1001.47
2022-09-27T02:04:32.913Z,1001.46
2022-09-27T02:09:40.046Z,1001.34
2022-09-27T02:14:47.285Z,1001.35
2022-09-27T02:19:54.631Z,1001.47
2022-09-27T02:25:01.785Z,1001.54
2022-09-27T02:30:09.028Z,1001.49
2022-09-27T02:35:16.258Z,1001.46
2022-09-27T02:40:23.566Z,1001.47
2022-09-27T02:45:30.635Z,1001.44
2022-09-27T02:50:37.866Z,1001.31
2022-09-27T02:55:45.060Z,1001.21
2022-09-27T03:00:52.349Z,1001.55
2022-09-27T03:05:59.560Z,1001.40
2022-09-27T03:11:06.735Z,1001.35
2022-09-27T03:16:13.951Z,1001.41
2022-09-27T03:21:21.243Z,1001.35
2022-09-27T03:26:28.478Z,1001.63
2022-09-27T03:31:35.761Z,1001.58
2022-09-27T03:36:42.997Z,1001.93
2022-09-27T03:41:50.232Z,1002.02
2022-09-27T03:46:57.482Z,1002.12
2022-09-27T03:52:04.724Z,1002.33
2022-09-27T03:57:11.909Z,1002.32
2022-09-27T04:02:19.149Z,1002.32
2022-09-27T04:07:26.287Z,1002.43
2022-09-27T04:12:33.519Z,1002.47
2022-09-27T04:17:40.716Z,1002.28
2022-09-27T04:22:47.955Z,1002.39
2022-09-27T04:27:55.247Z,1002.39
2022-09-27T04:33:02.477Z,1002.19
2022-09-27T04:38:09.768Z,1002.17
2022-09-27T04:43:16.967Z,1002.16
2022-09-27T04:48:24.312Z,1002.07
2022-09-27T04:53:31.695Z,1002.18
2022-09-27T04:58:38.877Z,1002.42
2022-09-27T05:03:46.569Z,1002.83
2022-09-27T05:08:53.832Z,1002.92
2022-09-27T05:14:01.058Z,1002.95
2022-09-27T05:19:09.223Z,1002.86
2022-09-27T05:24:16.352Z,1002.93
2022-09-27T05:29:23.530Z,1002.93
2022-09-27T05:34:30.727Z,1002.87
2022-09-27T05:39:37.970Z,1002.95
2022-09-27T05:44:45.134Z,1003.29
2022-09-27T05:49:52.312Z,1002.85
2022-09-27T05:54:59.557Z,1003.27
2022-09-27T06:00:07.260Z,1003.27
2022-09-27T06:05:14.484Z,1003.32
2022-09-27T06:10:21.696Z,1003.48
2022-09-27T06:15:28.828Z,1003.61
2022-09-27T06:20:36.078Z,1003.52
2022-09-27T06:25:43.301Z,1003.72
2022-09-27T06:31:04.615Z,1003.76
2022-09-27T06:36:11.764Z,1003.87
2022-09-27T06:41:18.941Z,1003.78
2022-09-27T06:46:26.170Z,1003.87
2022-09-27T06:51:33.350Z,1003.88
2022-09-27T06:56:40.629Z,1004.00
2022-09-27T07:01:47.993Z,1004.13
2022-09-27T07:06:55.253Z,1004.18
2022-09-27T07:12:02.505Z,1004.10
2022-09-27T07:17:09.656Z,1004.18
2022-09-27T07:22:16.869Z,1004.10
2022-09-27T07:27:24.101Z,1004.20
2022-09-27T07:32:31.274Z,1004.19
2022-09-27T07:37:38.489Z,1004.37
2022-09-27T07:42:46.017Z,1004.43
2022-09-27T07:47:53.193Z,1004.70
2022-09-27T07:53:00.384Z,1005.12
2022-09-27T07:58:07.815Z,1005.33
2022-09-27T08:03:15.040Z,1005.41
2022-09-27T08:08:22.255Z,1005.41
2022-09-27T08:13:29.655Z,1005.50
2022-09-27T08:18:37.107Z,1005.50
2022-09-27T08:23:44.352Z,1005.51
2022-09-27T08:28:51.745Z,1005.47
2022-09-27T08:33:58.866Z,1005.44
2022-09-27T08:39:06.072Z,1005.42
2022-09-27T08:44:13.651Z,1005.73
2022-09-27T08:49:23.486Z,1005.74
2022-09-27T08:54:30.679Z,1005.78
2022-09-27T08:59:37.956Z,1005.87
2022-09-27T09:04:45.165Z,1005.93
2022-09-27T09:09:52.561Z,1006.07
2022-09-27T09:14:59.908Z,1006.01
2022-09-27T09:20:06.977Z,1005.93
2022-09-27T09:25:14.183Z,1005.75
2022-09-27T09:30:21.591Z,1005.69
2022-09-27T09:35:28.641Z,1005.59
2022-09-27T09:40:35.859Z,1005.42
2022-09-27T09:45:43.105Z,1005.39
2022-09-27T09:50:50.207Z,1005.38
2022-09-27T09:55:57.428Z,1005.25
2022-09-27T10:01:04.908Z,1005.35
2022-09-27T10:06:26.797Z,1005.36
2022-09-27T10:11:33.988Z,1005.35
2022-09-27T10:16:41.308Z,1005.46
2022-09-27T10:21:48.402Z,1005.31
2022-09-27T10:26:55.606Z,1005.21
2022-09-27T10:32:02.818Z,1005.05
2022-09-27T10:37:10.027Z,1004.95
2022-09-27T10:42:17.228Z,1004.90
2022-09-27T10:47:24.472Z,1004.72
2022-09-27T10:52:31.634Z,1004.81
2022-09-27T10:57:42.968Z,1004.93
2022-09-27T11:02:46.120Z,1004.89
2022-09-27T11:07:53.862Z,1004.64
2022-09-27T11:13:01.129Z,1004.78
2022-09-27T11:18:08.472Z,1004.89
2022-09-27T11:23:15.669Z,1004.72
2022-09-27T11:28:22.881Z,1004.59
2022-09-27T11:33:30.113Z,1004.38
2022-09-27T11:38:53.947Z,1004.47
2022-09-27T11:43:44.578Z,1004.58
2022-09-27T11:48:51.817Z,1004.75
2022-09-27T11:53:58.985Z,1004.72
2022-09-27T11:59:06.184Z,1004.57
2022-09-27T12:04:13.447Z,1004.43
2022-09-27T12:09:20.569Z,1004.71
2022-09-27T12:14:27.770Z,1004.86
2022-09-27T12:19:35.043Z,1004.89
2022-09-27T12:24:42.150Z,1004.92
2022-09-27T12:29:49.414Z,1005.13
2022-09-27T12:34:56.711Z,1004.86
2022-09-27T12:40:04.002Z,1004.90
2022-09-27T12:45:11.317Z,1004.94
2022-09-27T12:50:18.606Z,1005.08
2022-09-27T12:55:25.855Z,1004.82
2022-09-27T13:00:33.098Z,1004.78
2022-09-27T13:05:40.298Z,1004.74
2022-09-27T13:10:47.486Z,1004.57
2022-09-27T13:15:54.707Z,1004.53
2022-09-27T13:21:01.917Z,1004.43
2022-09-27T13:26:09.086Z,1004.44
2022-09-27T13:31:16.683Z,1004.44
2022-09-27T13:36:23.642Z,1004.29
2022-09-27T13:41:31.023Z,1004.30
2022-09-27T13:46:38.408Z,1004.33
2022-09-27T13:51:45.753Z,1004.41
2022-09-27T13:56:52.946Z,1004.24
2022-09-27T14:02:00.306Z,1004.16
2022-09-27T14:07:07.356Z,1004.18
2022-09-27T14:12:14.550Z,1004.19
2022-09-27T14:17:21.825Z,1004.20
2022-09-27T14:22:29.050Z,1004.01
2022-09-27T14:27:36.317Z,1004.14
2022-09-27T14:32:43.578Z,1004.16
2022-09-27T14:37:51.736Z,1004.23
2022-09-27T14:42:58.971Z,1004.39
2022-09-27T14:48:06.581Z,1004.58
2022-09-27T14:53:13.846Z,1004.38
2022-09-27T14:58:43.103Z,1004.37
2022-09-27T15:03:28.428Z,1004.20
2022-09-27T15:08:35.602Z,1004.36
2022-09-27T15:13:42.761Z,1004.41
2022-09-27T15:18:49.981Z,1004.39
2022-09-27T15:23:57.198Z,1004.31
2022-09-27T15:29:04.389Z,1004.29
2022-09-27T15:34:11.559Z,1004.37
2022-09-27T15:39:19.077Z,1004.35
2022-09-27T15:44:25.964Z,1004.31
2022-09-27T15:49:33.191Z,1004.33
2022-09-27T15:54:40.435Z,1004.28
2022-09-27T15:59:47.606Z,1004.30
2022-09-27T16:04:54.781Z,1004.25
2022-09-27T16:10:02.021Z,1004.38
2022-09-27T16:15:09.252Z,1004.42
2022-09-27T16:20:16.528Z,1004.50
2022-09-27T16:25:23.828Z,1004.60
2022-09-27T16:30:31.142Z,1004.61
2022-09-27T16:35:38.379Z,1004.47
2022-09-27T16:40:45.754Z,1004.37
2022-09-27T16:45:52.842Z,1004.26
2022-09-27T16:51:00.134Z,1004.32
2022-09-27T16:56:07.380Z,1004.39
2022-09-27T17:01:14.717Z,1004.50
2022-09-27T17:06:21.814Z,1004.48
2022-09-27T17:11:29.080Z,1004.58
2022-09-27T17:16:36.257Z,1004.70
2022-09-27T17:21:43.486Z,1004.90
2022-09-27T17:26:50.700Z,1005.04
2022-09-27T17:31:57.905Z,1005.04
2022-09-27T17:37:05.080Z,1004.93
2022-09-27T17:42:12.341Z,1005.09
2022-09-27T17:47:19.653Z,1005.16
2022-09-27T17:52:26.914Z,1005.15
2022-09-27T17:57:34.121Z,1005.11
2022-09-27T18:02:41.654Z,1005.24
2022-09-27T18:07:48.871Z,1005.19
2022-09-27T18:12:56.142Z,1005.11
2022-09-27T18:18:03.365Z,1005.09
2022-09-27T18:23:10.665Z,1005.12
2022-09-27T18:28:17.899Z,1004.99
2022-09-27T18:33:25.154Z,1004.98
2022-09-27T18:38:34.421Z,1005.06
2022-09-27T18:43:42.037Z,1005.03
2022-09-27T18:48:49.526Z,1005.05
2022-09-27T18:53:57.253Z,1005.14
2022-09-27T18:59:04.889Z,1005.27
2022-09-27T19:04:12.197Z,1005.36
2022-09-27T19:09:19.614Z,1005.57
2022-09-27T19:14:27.108Z,1005.37
2022-09-27T19:19:34.596Z,1005.30
2022-09-27T19:24:42.018Z,1005.39
2022-09-27T19:29:49.588Z,1005.52
2022-09-27T19:34:57.132Z,1005.56
2022-09-27T19:40:05.063Z,1005.51
2022-09-27T19:45:12.695Z,1005.55
2022-09-27T19:50:20.081Z,1005.81
2022-09-27T19:55:27.312Z,1005.69
2022-09-27T20:00:34.580Z,1005.74
2022-09-27T20:05:41.750Z,1005.61
2022-09-27T20:10:49.306Z,1005.64
2022-09-27T20:15:56.797Z,1005.60
2022-09-27T20:21:04.226Z,1005.46
2022-09-27T20:26:11.603Z,1005.48
2022-09-27T20:31:19.055Z,1005.34
2022-09-27T20:36:26.138Z,1005.38
2022-09-27T20:41:33.380Z,1005.48
2022-09-27T20:46:40.715Z,1005.49
2022-09-27T20:51:47.781Z,1005.49
2022-09-27T20:56:54.982Z,1005.38
2022-09-27T21:02:02.260Z,1005.31
2022-09-27T21:07:09.403Z,1005.24
2022-09-27T21:12:16.684Z,1005.20
2022-09-27T21:17:23.922Z,1004.95
2022-09-27T21:22:31.095Z,1004.97
2022-09-27T21:27:38.302Z,1005.01
2022-09-27T21:32:45.546Z,1004.81
2022-09-27T21:37:52.736Z,1004.65
2022-09-27T21:42:59.923Z,1004.74
2022-09-27T21:48:07.135Z,1004.74
2022-09-27T21:53:14.306Z,1004.85
2022-09-27T21:58:21.452Z,1004.76
2022-09-27T22:03:28.638Z,1004.67
2022-09-27T22:08:35.834Z,1004.65
2022-09-27T22:13:43.041Z,1004.48
2022-09-27T22:18:50.363Z,1004.55
2022-09-27T22:23:57.465Z,1004.47
2022-09-27T22:29:04.676Z,1004.41
2022-09-27T22:34:11.868Z,1004.30
2022-09-27T22:39:19.064Z,1004.13
2022-09-27T22:44:26.260Z,1004.05
2022-09-27T22:49:33.525Z,1004.05
2022-09-27T22:54:40.656Z,1003.94
2022-09-27T22:59:47.899Z,1003.90
2022-09-27T23:04:55.123Z,1003.89
2022-09-27T23:10:02.310Z,1003.75
2022-09-27T23:15:09.492Z,1003.85
2022-09-27T23:20:16.729Z,1003.86
2022-09-27T23:25:23.908Z,1003.98
2022-09-27T23:30:31.118Z,1003.97
2022-09-27T23:35:38.368Z,1003.88
2022-09-27T23:40:45.582Z,1003.79
2022-09-27T23:45:52.701Z,1003.82
2022-09-27T23:50:59.993Z,1003.71
2022-09-27T23:56:07.181Z,1003.66
